Disclaimer

Please do not use the information listed here in-flight or in-navigation, as they are not provided to us by the airports but are provided by volunteers, so they might be outdated.

Search


Regions


Airport information page

Radio informations:
INFO - 118.1 MHz

Airport informations:
Latitude: 09° 25' 40.80" S
Longitude: 160° 03' 17.24" E
Elevation: 28 feet - 9 meters
Operating hours: N/A
Operating agency: Civil government, landing fees and diplomatic clearance may be required
Timezone: UTC+11
Fuel: Jet A1, without icing nhibitor.

100/130 octane gasoline, leaded, MIL-L-5572F (GREEN)

Runway information:
06/24 - 7218 x 148 feet< - >2200 x 45 meters

Recent METARs:
AGGH 162300Z 36005KT 9999 HZ FEW019 BKN300 31/24 Q1009
AGGH 162300Z 36005KT 9999 HZ FEW019 BKN300 31/24 Q1009
AGGH 170000Z 02007KT 9999 HZ FEW020 BKN300 31/23 Q1008

Airport on the map: